Time;durP1;ratioP1;P1;durP2;ratioP2;P2;SDS_P1;SDS_P2;PMS_P1;PMS_P2;Temp;Humidity;BMP_temperature;BMP_pressure;BME280_temperature;BME280_humidity;BME280_pressure;Samples;Min_cycle;Max_cycle;Signal;HPM_P1;HPM_P2
2021/05/23 00:00:30;;;;;;;2.40;1.13;;;11.00;99.90;;;;;;5034787;28;20444;-64
2021/05/23 00:03:00;;;;;;;4.00;1.95;;;11.00;99.90;;;;;;5052207;28;20223;-64
2021/05/23 00:05:28;;;;;;;3.13;1.50;;;10.90;1.00;;;;;;5034017;28;20239;-64
2021/05/23 00:08:04;;;;;;;2.10;1.65;;;11.00;1.00;;;;;;5052268;28;20186;-64
2021/05/23 00:10:32;;;;;;;3.10;1.40;;;11.00;1.00;;;;;;5052027;28;20188;-64
2021/05/23 00:13:00;;;;;;;2.97;1.75;;;11.00;1.00;;;;;;5053398;28;20183;-66
2021/05/23 00:15:32;;;;;;;2.25;1.42;;;10.80;1.00;;;;;;5037519;28;20199;-66
2021/05/23 00:17:57;;;;;;;2.00;1.70;;;10.90;1.00;;;;;;5055626;28;20264;-67
2021/05/23 00:20:25;;;;;;;4.07;1.40;;;10.90;1.00;;;;;;5055372;28;20568;-67
2021/05/23 00:22:51;;;;;;;1.85;1.20;;;11.00;1.00;;;;;;5055674;28;20173;-66
2021/05/23 00:25:18;;;;;;;2.40;1.40;;;11.00;1.00;;;;;;5054801;28;20231;-67
2021/05/23 00:27:44;;;;;;;3.55;1.55;;;10.90;1.00;;;;;;5055643;28;20973;-67
2021/05/23 00:30:11;;;;;;;3.08;1.40;;;11.00;1.00;;;;;;5055597;28;20253;-66
2021/05/23 00:32:37;;;;;;;9.50;2.63;;;11.00;1.00;;;;;;5055442;28;20660;-66
2021/05/23 00:35:02;;;;;;;9.20;2.13;;;10.90;1.00;;;;;;5054697;28;20212;-66
2021/05/23 00:37:28;;;;;;;4.00;1.73;;;10.90;1.00;;;;;;5055578;28;20203;-66
2021/05/23 00:39:54;;;;;;;5.30;2.13;;;10.90;1.00;;;;;;5055460;28;20180;-66
2021/05/23 00:42:20;;;;;;;5.57;2.00;;;10.90;1.00;;;;;;5055346;28;20434;-66
2021/05/23 00:44:46;;;;;;;3.53;1.30;;;10.80;26.60;;;;;;5054706;28;20637;-67
2021/05/23 00:47:11;;;;;;;2.65;2.08;;;10.90;99.90;;;;;;5055344;28;20454;-66
2021/05/23 00:49:37;;;;;;;2.43;1.47;;;10.90;34.60;;;;;;5055100;28;20479;-66
2021/05/23 00:52:07;;;;;;;1.83;1.60;;;10.80;99.90;;;;;;5055272;28;20211;-66
2021/05/23 00:54:34;;;;;;;5.30;1.55;;;10.70;99.90;;;;;;5054618;28;20192;-66
2021/05/23 00:57:00;;;;;;;4.43;2.03;;;10.80;99.90;;;;;;5055092;28;20602;-66
2021/05/23 00:59:26;;;;;;;3.10;1.80;;;10.80;99.90;;;;;;5055113;28;20207;-66
2021/05/23 01:01:55;;;;;;;3.53;1.80;;;10.80;99.90;;;;;;5037379;28;20189;-66
2021/05/23 01:04:21;;;;;;;2.88;1.73;;;10.70;99.90;;;;;;5054047;28;20828;-66
2021/05/23 01:06:46;;;;;;;4.03;1.50;;;10.80;99.90;;;;;;5054987;28;20257;-66
2021/05/23 01:09:15;;;;;;;3.60;1.37;;;10.80;99.90;;;;;;5037509;28;20427;-66
2021/05/23 01:11:40;;;;;;;2.00;1.35;;;10.80;99.90;;;;;;5055239;28;20669;-66
2021/05/23 01:14:16;;;;;;;4.87;1.77;;;10.80;70.20;;;;;;5054660;28;20180;-66
2021/05/23 01:16:49;;;;;;;3.17;1.60;;;10.80;70.70;;;;;;5055857;28;20180;-66
2021/05/23 01:19:53;;;;;;;5.53;1.98;;;10.80;27.40;;;;;;5055613;28;20184;-65
2021/05/23 01:22:59;;;;;;;1.52;1.35;;;10.90;1.00;;;;;;5025621;28;20287;-66
2021/05/23 01:25:27;;;;;;;2.28;1.77;;;10.90;1.00;;;;;;5025616;28;20587;-66
2021/05/23 01:27:53;;;;;;;4.13;1.40;;;10.90;1.00;;;;;;5055399;28;20177;-66
2021/05/23 01:30:31;;;;;;;4.77;1.50;;;10.70;1.00;;;;;;5055335;28;20709;-66
2021/05/23 01:33:02;;;;;;;4.72;1.95;;;10.80;1.00;;;;;;5055284;28;20419;-66
2021/05/23 01:35:36;;;;;;;4.65;1.65;;;10.80;1.00;;;;;;5054528;28;20227;-66
2021/05/23 01:38:06;;;;;;;5.03;1.88;;;10.90;1.00;;;;;;5055104;28;20211;-66
2021/05/23 01:40:35;;;;;;;4.97;1.85;;;10.80;99.90;;;;;;5057940;28;20181;-66
2021/05/23 01:43:01;;;;;;;3.38;1.98;;;10.70;99.90;;;;;;5059231;28;20210;-66
2021/05/23 01:45:30;;;;;;;1.55;1.23;;;10.60;99.90;;;;;;5061003;28;20723;-66
2021/05/23 01:47:57;;;;;;;5.63;2.65;;;10.60;99.90;;;;;;5054842;28;20173;-66
2021/05/23 01:50:23;;;;;;;4.60;1.25;;;10.60;99.90;;;;;;5054182;28;20208;-66
2021/05/23 01:52:54;;;;;;;5.43;2.03;;;10.60;99.90;;;;;;5037004;28;20642;-66
2021/05/23 01:55:20;;;;;;;4.70;1.40;;;10.60;1.00;;;;;;5054069;28;20250;-66
2021/05/23 01:57:46;;;;;;;2.05;1.60;;;10.60;1.00;;;;;;5054466;28;20267;-66
2021/05/23 02:00:16;;;;;;;5.07;1.47;;;10.80;1.00;;;;;;5054334;28;20193;-66
2021/05/23 02:02:42;;;;;;;2.42;1.20;;;10.70;99.90;;;;;;5054890;28;20427;-66
2021/05/23 02:05:09;;;;;;;2.97;1.60;;;10.60;1.00;;;;;;5054370;28;20292;-66
2021/05/23 02:07:35;;;;;;;5.20;1.80;;;10.50;1.00;;;;;;5054540;28;20212;-67
2021/05/23 02:10:03;;;;;;;2.50;1.60;;;10.50;1.00;;;;;;5053652;28;20177;-67
2021/05/23 02:12:29;;;;;;;2.65;1.60;;;10.60;1.00;;;;;;5053601;28;20263;-67
2021/05/23 02:14:55;;;;;;;3.87;1.90;;;10.60;1.00;;;;;;5052553;28;20207;-67
2021/05/23 02:17:20;;;;;;;1.30;1.20;;;10.60;1.00;;;;;;5053107;28;20187;-67
2021/05/23 02:19:50;;;;;;;5.13;2.00;;;10.50;1.00;;;;;;5052946;28;20520;-67
2021/05/23 02:22:16;;;;;;;3.65;1.90;;;10.40;82.70;;;;;;5053450;28;20176;-67
2021/05/23 02:24:43;;;;;;;5.28;1.70;;;10.40;99.90;;;;;;5052813;28;20196;-67
2021/05/23 02:27:09;;;;;;;5.15;1.90;;;10.40;99.90;;;;;;5035729;28;20517;-67
2021/05/23 02:29:34;;;;;;;3.43;1.57;;;10.60;99.90;;;;;;5052937;28;20188;-67
2021/05/23 02:32:03;;;;;;;4.80;1.70;;;10.70;99.90;;;;;;5053037;28;20169;-67
2021/05/23 02:34:29;;;;;;;3.55;1.80;;;10.50;99.90;;;;;;5035064;28;20181;-67
2021/05/23 02:37:01;;;;;;;7.10;2.07;;;10.60;99.90;;;;;;5053123;28;20173;-67
2021/05/23 02:39:26;;;;;;;4.93;2.72;;;10.70;99.90;;;;;;5053454;28;20544;-67
2021/05/23 02:41:52;;;;;;;4.13;1.70;;;10.80;99.90;;;;;;5053152;28;20189;-67
2021/05/23 02:44:18;;;;;;;4.23;2.40;;;10.60;99.90;;;;;;5051874;28;20241;-67
2021/05/23 02:46:43;;;;;;;4.93;1.93;;;10.60;99.90;;;;;;5052781;28;20250;-67
2021/05/23 02:49:14;;;;;;;4.13;2.07;;;10.60;99.90;;;;;;5052899;28;20184;-67
2021/05/23 02:51:40;;;;;;;5.80;3.85;;;10.60;99.90;;;;;;5052854;28;20426;-67
2021/05/23 02:54:06;;;;;;;7.55;2.67;;;10.70;99.90;;;;;;5052205;28;20204;-67
2021/05/23 02:56:32;;;;;;;4.70;2.10;;;10.70;99.90;;;;;;5052732;28;20219;-67
2021/05/23 02:58:57;;;;;;;3.63;2.10;;;10.50;99.90;;;;;;5052734;28;20184;-67
2021/05/23 03:01:23;;;;;;;3.70;1.60;;;10.30;99.90;;;;;;5052952;28;20176;-67
2021/05/23 03:03:48;;;;;;;4.50;2.50;;;10.20;99.90;;;;;;5052356;28;20514;-67
2021/05/23 03:06:14;;;;;;;4.73;1.90;;;10.20;1.00;;;;;;5052639;28;20649;-67
2021/05/23 03:08:39;;;;;;;4.07;1.90;;;10.00;1.00;;;;;;5052580;28;20184;-67
2021/05/23 03:11:05;;;;;;;5.83;3.17;;;10.00;1.00;;;;;;5051295;28;20200;-67
2021/05/23 03:13:31;;;;;;;4.90;1.60;;;10.10;1.00;;;;;;5052582;28;20177;-67
2021/05/23 03:15:56;;;;;;;29.10;2.57;;;9.90;1.00;;;;;;5052445;28;20188;-67
2021/05/23 03:18:22;;;;;;;5.10;2.90;;;9.90;1.00;;;;;;5052572;28;20289;-64
2021/05/23 03:20:47;;;;;;;4.03;2.17;;;9.80;1.00;;;;;;5052482;28;20192;-64
2021/05/23 03:23:13;;;;;;;4.83;2.20;;;9.70;1.00;;;;;;5052461;28;20250;-64
2021/05/23 03:25:39;;;;;;;5.97;2.23;;;9.60;1.00;;;;;;5034678;28;20211;-64
2021/05/23 03:28:05;;;;;;;5.75;1.73;;;9.60;1.00;;;;;;5052618;28;20185;-64
2021/05/23 03:30:42;;;;;;;4.30;2.60;;;9.70;1.00;;;;;;5052416;28;20176;-64
2021/05/23 03:33:09;;;;;;;5.22;2.22;;;9.60;1.00;;;;;;5052349;28;20184;-63
2021/05/23 03:35:35;;;;;;;3.75;2.00;;;9.60;1.00;;;;;;5052037;28;20184;-63
2021/05/23 03:38:05;;;;;;;3.42;3.10;;;9.50;1.00;;;;;;5052502;28;20191;-63
2021/05/23 03:40:31;;;;;;;3.05;2.13;;;9.70;1.00;;;;;;5052411;28;20208;-63
2021/05/23 03:42:57;;;;;;;6.28;2.03;;;9.70;1.00;;;;;;5052245;28;20261;-63
2021/05/23 03:45:23;;;;;;;3.92;2.33;;;9.50;1.00;;;;;;5052074;28;20246;-63
2021/05/23 03:47:49;;;;;;;2.57;2.30;;;9.40;1.00;;;;;;5053737;28;20204;-63
2021/05/23 03:50:19;;;;;;;3.30;1.90;;;9.50;1.00;;;;;;5056358;28;20427;-63
2021/05/23 03:52:46;;;;;;;4.88;2.50;;;9.40;1.00;;;;;;5056464;28;20464;-63
2021/05/23 03:55:13;;;;;;;3.03;2.30;;;9.50;1.00;;;;;;5055935;28;20623;-63
2021/05/23 03:57:38;;;;;;;2.25;2.00;;;10.20;1.00;;;;;;5056258;28;20184;-63
2021/05/23 04:00:06;;;;;;;6.30;2.37;;;11.10;1.00;;;;;;5056311;28;20520;-63
2021/05/23 04:02:32;;;;;;;10.75;2.45;;;11.70;1.00;;;;;;5056092;28;20722;-67
2021/05/23 04:04:57;;;;;;;3.63;1.80;;;12.40;32.10;;;;;;5055620;28;20217;-67
2021/05/23 04:07:26;;;;;;;6.27;2.10;;;12.80;1.00;;;;;;5055961;28;20264;-67
2021/05/23 04:09:52;;;;;;;4.45;2.55;;;12.90;77.80;;;;;;5055886;28;20181;-67
2021/05/23 04:12:29;;;;;;;2.95;2.05;;;13.50;1.00;;;;;;5056228;28;20622;-67
2021/05/23 04:14:54;;;;;;;6.50;2.30;;;13.90;1.00;;;;;;5055726;28;20683;-67
2021/05/23 04:17:20;;;;;;;3.17;1.57;;;14.10;92.80;;;;;;5055953;28;20231;-67
2021/05/23 04:19:46;;;;;;;5.70;2.40;;;13.50;99.90;;;;;;5055724;28;20223;-68
2021/05/23 04:22:12;;;;;;;4.60;1.60;;;13.40;17.20;;;;;;5055716;28;20516;-67
2021/05/23 04:24:39;;;;;;;4.93;1.77;;;13.40;1.00;;;;;;5055249;28;20565;-65
2021/05/23 04:27:06;;;;;;;5.80;2.20;;;12.90;99.90;;;;;;5055488;28;20252;-65
2021/05/23 04:29:33;;;;;;;4.82;2.25;;;12.20;1.00;;;;;;5037787;28;20180;-65
2021/05/23 04:31:59;;;;;;;4.60;2.13;;;11.90;99.90;;;;;;5055335;28;20248;-65
2021/05/23 04:34:26;;;;;;;5.45;2.55;;;11.50;1.00;;;;;;5055037;28;20172;-65
2021/05/23 04:36:52;;;;;;;6.18;2.67;;;11.30;74.20;;;;;;5055232;28;20196;-65
2021/05/23 04:39:17;;;;;;;3.35;1.75;;;11.20;99.90;;;;;;5055136;28;20184;-65
2021/05/23 04:41:43;;;;;;;7.03;1.80;;;11.00;1.00;;;;;;5055530;28;20563;-65
2021/05/23 04:44:08;;;;;;;4.80;2.23;;;10.90;1.00;;;;;;5054824;28;20180;-65
2021/05/23 04:46:34;;;;;;;4.70;2.20;;;11.10;1.00;;;;;;5055014;28;20278;-65
2021/05/23 04:49:00;;;;;;;8.40;2.27;;;11.30;1.00;;;;;;5055109;28;20362;-65
2021/05/23 04:51:26;;;;;;;4.83;2.17;;;12.10;99.90;;;;;;5054974;28;20173;-65
2021/05/23 04:53:51;;;;;;;5.13;3.43;;;12.60;1.00;;;;;;5054746;28;20185;-65
2021/05/23 04:56:17;;;;;;;4.07;2.30;;;12.80;11.60;;;;;;5037717;28;20195;-65
2021/05/23 04:58:43;;;;;;;2.27;1.60;;;13.00;1.00;;;;;;5054774;28;20438;-65
2021/05/23 05:01:09;;;;;;;8.03;2.20;;;12.60;1.00;;;;;;5054924;28;20427;-64
2021/05/23 05:03:34;;;;;;;2.67;1.50;;;12.40;99.20;;;;;;5054631;28;20180;-64
2021/05/23 05:06:00;;;;;;;6.87;1.73;;;12.80;1.00;;;;;;5054653;28;20205;-64
2021/05/23 05:08:26;;;;;;;6.53;2.10;;;15.00;99.90;;;;;;5054910;28;20181;-64
2021/05/23 05:10:51;;;;;;;6.20;1.90;;;16.40;99.90;;;;;;5054483;28;20431;-64
2021/05/23 05:13:17;;;;;;;3.53;1.60;;;16.70;1.00;;;;;;5054445;28;20515;-64
2021/05/23 05:15:43;;;;;;;3.53;2.27;;;18.00;1.00;;;;;;5036940;28;20188;-64
2021/05/23 05:18:08;;;;;;;3.50;1.77;;;18.80;1.00;;;;;;5054735;28;20181;-64
2021/05/23 05:20:34;;;;;;;4.97;1.80;;;19.80;1.00;;;;;;5054696;28;20542;-64
2021/05/23 05:23:00;;;;;;;3.23;1.90;;;18.90;1.00;;;;;;5054570;28;20192;-64
2021/05/23 05:25:25;;;;;;;3.77;1.80;;;19.80;1.00;;;;;;5054092;28;20211;-64
2021/05/23 05:27:51;;;;;;;4.90;1.50;;;19.80;1.00;;;;;;5054487;28;20588;-64
2021/05/23 05:30:17;;;;;;;5.60;2.20;;;19.60;1.00;;;;;;5054310;28;20226;-64
2021/05/23 05:32:43;;;;;;;4.38;1.98;;;18.80;1.00;;;;;;5054357;28;20932;-64
2021/05/23 05:35:09;;;;;;;1.70;1.40;;;18.50;1.00;;;;;;5053858;28;20260;-64
2021/05/23 05:37:35;;;;;;;6.80;1.70;;;18.40;1.00;;;;;;5054234;28;20189;-64
2021/05/23 05:40:02;;;;;;;2.97;1.70;;;19.70;1.00;;;;;;5054206;28;20910;-65
2021/05/23 05:42:29;;;;;;;4.33;1.73;;;18.60;1.00;;;;;;5054265;28;20185;-66
2021/05/23 05:44:58;;;;;;;4.43;1.90;;;18.20;1.00;;;;;;5053810;28;20499;-66
2021/05/23 05:47:23;;;;;;;2.83;1.60;;;18.10;1.00;;;;;;5054272;28;20648;-66
2021/05/23 05:49:49;;;;;;;7.57;1.80;;;17.70;1.00;;;;;;5036648;28;20423;-66
2021/05/23 05:52:14;;;;;;;5.70;1.80;;;18.30;1.00;;;;;;5054016;28;20235;-68
2021/05/23 05:54:40;;;;;;;4.70;1.83;;;17.40;1.00;;;;;;5053663;28;20583;-68
2021/05/23 05:57:06;;;;;;;3.83;1.80;;;18.70;1.00;;;;;;5053946;28;20633;-67
2021/05/23 05:59:31;;;;;;;4.30;2.03;;;18.30;1.00;;;;;;5053879;28;20180;-69
2021/05/23 06:01:57;;;;;;;5.50;1.93;;;18.50;1.00;;;;;;5053761;28;20184;-68
2021/05/23 06:04:22;;;;;;;3.33;1.67;;;19.90;1.00;;;;;;5053194;28;20622;-69
2021/05/23 06:06:48;;;;;;;7.33;2.00;;;20.40;1.00;;;;;;5053727;28;20734;-68
2021/05/23 06:09:13;;;;;;;5.90;1.80;;;20.20;1.00;;;;;;5053728;28;20177;-68
2021/05/23 06:11:39;;;;;;;5.23;2.00;;;19.30;1.00;;;;;;5053082;28;20212;-69
2021/05/23 06:14:04;;;;;;;2.93;1.73;;;20.20;1.00;;;;;;5053172;28;20180;-68
2021/05/23 06:16:30;;;;;;;4.60;1.70;;;20.00;1.00;;;;;;5036006;28;20180;-68
2021/05/23 06:18:55;;;;;;;8.97;2.20;;;17.50;1.00;;;;;;5053495;28;20184;-68
2021/05/23 06:21:21;;;;;;;2.90;1.80;;;17.20;1.00;;;;;;5053441;28;20256;-66
2021/05/23 06:23:46;;;;;;;5.17;1.60;;;18.40;1.00;;;;;;5035255;28;20180;-65
2021/05/23 06:26:14;;;;;;;4.27;1.50;;;20.00;1.00;;;;;;5053409;28;20215;-65
2021/05/23 06:28:41;;;;;;;6.00;2.23;;;20.00;1.00;;;;;;5053217;28;20169;-65
2021/05/23 06:31:07;;;;;;;4.60;1.70;;;19.80;1.00;;;;;;5053451;28;20734;-65
2021/05/23 06:33:32;;;;;;;4.83;2.07;;;19.10;1.00;;;;;;5053153;28;20449;-65
2021/05/23 06:35:58;;;;;;;4.70;1.90;;;19.40;1.00;;;;;;5035580;28;20184;-65
2021/05/23 06:38:23;;;;;;;7.03;2.10;;;19.40;1.00;;;;;;5035581;28;20172;-65
2021/05/23 06:40:49;;;;;;;5.87;1.73;;;20.20;1.00;;;;;;5053191;28;20195;-65
2021/05/23 06:43:14;;;;;;;4.50;1.97;;;21.10;1.00;;;;;;5052984;28;20188;-65
2021/05/23 06:45:40;;;;;;;3.77;1.40;;;19.50;1.00;;;;;;5052748;28;20223;-65
2021/05/23 06:48:06;;;;;;;6.57;1.87;;;18.40;1.00;;;;;;5052895;28;20207;-65
2021/05/23 06:50:31;;;;;;;4.03;1.30;;;18.20;1.00;;;;;;5053050;28;20176;-67
2021/05/23 06:52:57;;;;;;;3.77;1.40;;;18.70;1.00;;;;;;5052762;28;20231;-66
2021/05/23 06:55:23;;;;;;;5.80;1.83;;;19.50;1.00;;;;;;5052695;28;20189;-66
2021/05/23 06:57:48;;;;;;;7.67;1.63;;;18.60;1.00;;;;;;5053070;28;20184;-66
2021/05/23 07:00:14;;;;;;;8.53;2.47;;;17.40;1.00;;;;;;5052920;28;20184;-66
2021/05/23 07:02:40;;;;;;;6.90;2.20;;;18.30;1.00;;;;;;5053271;28;20372;-66
2021/05/23 07:05:06;;;;;;;4.17;1.90;;;19.80;1.00;;;;;;5052602;28;20561;-66
2021/05/23 07:07:32;;;;;;;5.37;1.80;;;19.90;1.00;;;;;;5035502;28;20219;-66
2021/05/23 07:09:58;;;;;;;6.40;1.80;;;18.80;1.00;;;;;;5053372;28;21015;-66
2021/05/23 07:12:24;;;;;;;5.70;1.75;;;17.20;1.00;;;;;;5053483;28;20230;-66
2021/05/23 07:14:49;;;;;;;4.23;2.03;;;16.20;1.00;;;;;;5053629;28;20192;-68
2021/05/23 07:17:15;;;;;;;4.70;1.73;;;16.20;1.00;;;;;;5053349;28;20183;-68
2021/05/23 07:19:41;;;;;;;7.27;2.30;;;16.10;1.00;;;;;;5053596;28;20200;-69
2021/05/23 07:22:06;;;;;;;5.23;1.73;;;15.80;1.00;;;;;;5053611;28;20173;-69
2021/05/23 07:24:32;;;;;;;5.23;1.90;;;16.40;1.00;;;;;;5056694;28;20427;-69
2021/05/23 07:26:58;;;;;;;7.53;2.03;;;17.10;1.00;;;;;;5057869;28;20193;-69
2021/05/23 07:29:23;;;;;;;7.67;2.07;;;16.50;1.00;;;;;;5058020;28;20184;-68
2021/05/23 07:31:49;;;;;;;6.03;2.13;;;14.70;99.90;;;;;;5061428;28;20585;-68
2021/05/23 07:34:15;;;;;;;4.00;1.80;;;15.60;27.80;;;;;;5057909;28;20242;-66
2021/05/23 07:36:40;;;;;;;6.17;2.37;;;15.80;1.00;;;;;;5057500;28;20207;-66
2021/05/23 07:39:06;;;;;;;4.93;1.83;;;15.50;47.20;;;;;;5057600;28;20208;-66
2021/05/23 07:41:31;;;;;;;4.03;1.50;;;15.00;51.50;;;;;;5058494;28;20518;-66
2021/05/23 07:43:57;;;;;;;4.10;1.50;;;14.70;99.90;;;;;;5057470;28;20185;-67
2021/05/23 07:46:23;;;;;;;4.17;1.90;;;14.60;99.90;;;;;;5056966;28;20226;-67
2021/05/23 07:48:48;;;;;;;6.90;1.80;;;15.90;99.90;;;;;;5056934;28;20196;-65
2021/05/23 07:51:13;;;;;;;5.30;1.60;;;16.40;1.00;;;;;;5056318;28;20181;-65
2021/05/23 07:53:39;;;;;;;4.90;2.20;;;15.90;1.00;;;;;;5055908;28;20208;-65
2021/05/23 07:56:05;;;;;;;8.57;3.97;;;15.70;1.00;;;;;;5055953;28;20231;-65
2021/05/23 07:58:31;;;;;;;5.85;2.75;;;15.10;99.90;;;;;;5056157;28;20195;-65
2021/05/23 08:00:56;;;;;;;6.60;2.00;;;14.80;99.90;;;;;;5056283;28;20184;-66
2021/05/23 08:03:23;;;;;;;3.67;2.20;;;15.30;99.90;;;;;;5056184;28;20246;-65
2021/05/23 08:05:48;;;;;;;4.53;1.50;;;15.00;99.90;;;;;;5055695;28;20205;-65
2021/05/23 08:08:14;;;;;;;9.07;1.97;;;14.40;99.90;;;;;;5055963;28;20581;-66
2021/05/23 08:10:39;;;;;;;2.97;1.40;;;14.90;99.90;;;;;;5055905;28;20188;-64
2021/05/23 08:13:05;;;;;;;2.07;1.30;;;15.30;79.30;;;;;;5056020;28;20185;-63
2021/05/23 08:15:31;;;;;;;3.07;1.50;;;15.30;80.20;;;;;;5055680;28;20181;-63
2021/05/23 08:17:58;;;;;;;2.38;1.10;;;15.70;24.20;;;;;;5055622;28;20189;-65
2021/05/23 08:20:23;;;;;;;3.78;2.20;;;15.50;1.00;;;;;;5055544;28;20185;-66
2021/05/23 08:22:49;;;;;;;7.30;1.93;;;15.60;1.00;;;;;;5055578;28;20263;-67
2021/05/23 08:25:15;;;;;;;4.97;1.35;;;15.80;1.00;;;;;;5037791;28;20208;-67
2021/05/23 08:27:41;;;;;;;6.53;2.90;;;15.50;1.00;;;;;;5055703;28;20172;-67
2021/05/23 08:30:09;;;;;;;4.10;1.80;;;15.10;99.90;;;;;;5055440;28;20192;-67
2021/05/23 08:32:36;;;;;;;8.75;2.40;;;15.10;99.90;;;;;;5055812;28;20752;-67
2021/05/23 08:35:01;;;;;;;7.90;2.78;;;14.80;99.90;;;;;;5054371;28;20630;-67
2021/05/23 08:37:27;;;;;;;4.10;1.67;;;14.60;1.00;;;;;;5055804;28;20223;-67
2021/05/23 08:39:52;;;;;;;3.37;1.83;;;14.70;99.90;;;;;;5037770;28;20815;-66
2021/05/23 08:42:18;;;;;;;3.33;1.53;;;14.50;99.90;;;;;;5055428;28;20574;-67
2021/05/23 08:44:44;;;;;;;5.23;1.37;;;14.50;99.90;;;;;;5054803;28;20181;-67
2021/05/23 08:47:09;;;;;;;8.00;2.13;;;14.90;99.90;;;;;;5055226;28;20177;-67
2021/05/23 08:49:35;;;;;;;3.63;1.20;;;15.30;99.20;;;;;;5055090;28;20184;-66
2021/05/23 08:52:00;;;;;;;3.80;1.40;;;15.40;1.00;;;;;;5055041;28;20188;-67
2021/05/23 08:54:28;;;;;;;3.57;1.27;;;15.30;1.00;;;;;;5054430;28;20242;-66
2021/05/23 08:56:53;;;;;;;3.28;1.10;;;15.60;1.00;;;;;;5054950;28;20188;-66
2021/05/23 08:59:19;;;;;;;5.57;1.40;;;15.80;1.00;;;;;;5055092;28;20279;-66
2021/05/23 09:01:45;;;;;;;4.50;1.30;;;16.20;1.00;;;;;;5037202;28;20334;-61
2021/05/23 09:04:17;;;;;;;4.63;1.20;;;16.90;1.00;;;;;;5054246;28;20180;-66
2021/05/23 09:06:44;;;;;;;5.87;1.63;;;17.30;1.00;;;;;;5054664;28;20462;-66
2021/05/23 09:09:12;;;;;;;3.83;1.47;;;16.80;1.00;;;;;;5054667;28;20903;-62
2021/05/23 09:11:49;;;;;;;2.30;1.20;;;16.90;1.00;;;;;;5054488;28;20450;-62
2021/05/23 09:14:14;;;;;;;5.73;2.10;;;16.40;1.00;;;;;;5054245;28;20199;-65
2021/05/23 09:16:40;;;;;;;3.57;1.80;;;16.10;1.00;;;;;;5054847;28;20474;-66
2021/05/23 09:19:07;;;;;;;3.03;1.17;;;16.20;1.00;;;;;;5054572;28;20177;-66
2021/05/23 09:21:35;;;;;;;3.63;1.40;;;16.20;1.00;;;;;;5054410;28;20180;-67
2021/05/23 09:24:03;;;;;;;5.10;1.53;;;16.30;1.00;;;;;;5054249;28;20215;-66
2021/05/23 09:26:44;;;;;;;8.63;1.63;;;16.00;1.00;;;;;;5054422;28;20499;-66
2021/05/23 09:29:14;;;;;;;2.22;1.20;;;15.20;40.40;;;;;;5054526;28;20180;-65
2021/05/23 09:31:40;;;;;;;2.63;1.27;;;15.40;28.60;;;;;;5054354;28;20166;-65
2021/05/23 09:34:06;;;;;;;1.90;1.30;;;15.60;1.00;;;;;;5053754;28;20169;-65
2021/05/23 09:36:44;;;;;;;5.83;1.20;;;15.70;1.00;;;;;;5054289;28;20215;-65
2021/05/23 09:39:10;;;;;;;2.92;1.23;;;15.50;1.00;;;;;;5054090;28;20445;-65
2021/05/23 09:41:38;;;;;;;4.20;1.30;;;15.40;1.00;;;;;;5054141;28;20626;-65
2021/05/23 09:44:19;;;;;;;4.40;1.63;;;15.40;1.00;;;;;;5053683;28;20192;-65
2021/05/23 09:47:00;;;;;;;2.78;1.15;;;15.30;1.00;;;;;;5052925;28;20205;-65
2021/05/23 09:49:28;;;;;;;7.23;1.60;;;15.50;18.20;;;;;;5053862;28;20197;-65
2021/05/23 09:51:59;;;;;;;4.70;1.80;;;15.20;99.90;;;;;;5053655;28;20837;-65
2021/05/23 09:54:26;;;;;;;1.30;0.90;;;15.20;99.90;;;;;;5053539;28;20230;-62
2021/05/23 09:56:53;;;;;;;3.30;1.20;;;15.50;99.90;;;;;;5053820;28;20243;-62
2021/05/23 09:59:27;;;;;;;4.28;1.95;;;16.20;1.00;;;;;;5036091;28;20431;-63
2021/05/23 10:02:08;;;;;;;3.70;1.17;;;16.80;1.00;;;;;;5053832;28;20270;-63
2021/05/23 10:04:35;;;;;;;8.07;1.30;;;16.80;1.00;;;;;;5053286;28;20423;-66
2021/05/23 10:07:04;;;;;;;2.50;1.43;;;16.70;1.00;;;;;;5053308;28;20463;-66
2021/05/23 10:09:30;;;;;;;3.83;1.20;;;16.50;1.00;;;;;;5053736;28;20419;-63
2021/05/23 10:11:59;;;;;;;4.07;1.60;;;17.00;1.00;;;;;;5053306;28;20443;-65
2021/05/23 10:14:27;;;;;;;2.00;1.10;;;16.80;1.00;;;;;;5052987;28;20753;-62
2021/05/23 10:16:53;;;;;;;3.10;1.55;;;16.50;1.00;;;;;;5053471;28;20474;-66
2021/05/23 10:19:27;;;;;;;3.88;1.60;;;15.90;1.00;;;;;;5035616;28;20524;-66
2021/05/23 10:21:54;;;;;;;3.50;1.40;;;15.90;1.00;;;;;;5053430;28;20184;-67
2021/05/23 10:24:48;;;;;;;2.08;1.55;;;16.30;1.00;;;;;;5053712;28;20212;-66
2021/05/23 10:27:18;;;;;;;3.13;1.77;;;16.80;1.00;;;;;;5053309;28;20181;-67
2021/05/23 10:29:50;;;;;;;5.50;1.63;;;16.80;1.00;;;;;;5053758;28;20423;-67
2021/05/23 10:32:19;;;;;;;2.40;1.13;;;16.70;1.00;;;;;;5035465;28;20431;-67
2021/05/23 10:34:48;;;;;;;1.50;1.00;;;16.90;1.00;;;;;;5052756;28;20431;-66
2021/05/23 10:37:17;;;;;;;2.47;1.43;;;16.90;1.00;;;;;;5053271;28;20419;-66
2021/05/23 10:39:51;;;;;;;3.13;1.10;;;16.40;1.00;;;;;;5053180;28;20861;-66
2021/05/23 10:42:18;;;;;;;3.10;1.50;;;16.30;1.00;;;;;;5035336;28;20427;-62
2021/05/23 10:44:46;;;;;;;1.65;0.93;;;16.20;1.00;;;;;;5052925;28;20427;-63
2021/05/23 10:47:34;;;;;;;2.47;1.10;;;16.20;1.00;;;;;;5052955;28;20173;-62
2021/05/23 10:50:08;;;;;;;2.63;1.48;;;16.40;1.00;;;;;;5053177;28;20180;-65
2021/05/23 10:52:36;;;;;;;3.40;1.43;;;16.50;1.00;;;;;;5035581;28;20185;-65
2021/05/23 10:55:16;;;;;;;1.73;1.23;;;16.70;1.00;;;;;;5052504;28;20435;-65
2021/05/23 10:57:53;;;;;;;3.30;1.50;;;16.90;1.00;;;;;;5052861;28;20427;-66
2021/05/23 11:00:35;;;;;;;1.93;1.27;;;17.00;1.00;;;;;;5052794;28;20454;-67
2021/05/23 11:03:23;;;;;;;1.98;1.60;;;17.20;1.00;;;;;;5052833;28;20563;-67
2021/05/23 11:06:03;;;;;;;3.77;1.30;;;17.40;1.00;;;;;;5052485;28;20208;-67
2021/05/23 11:08:33;;;;;;;2.07;1.20;;;17.80;1.00;;;;;;5053059;28;20447;-67
2021/05/23 11:10:59;;;;;;;4.30;1.67;;;17.90;1.00;;;;;;5052944;28;20518;-67
2021/05/23 11:13:29;;;;;;;1.67;1.10;;;17.80;1.00;;;;;;5052618;28;20427;-67
2021/05/23 11:16:07;;;;;;;1.30;0.90;;;18.20;1.00;;;;;;5052509;28;20514;-67
2021/05/23 11:18:32;;;;;;;2.07;1.23;;;18.40;1.00;;;;;;5052774;28;20966;-68
2021/05/23 11:21:00;;;;;;;2.50;1.40;;;18.80;1.00;;;;;;5052707;28;20518;-67
2021/05/23 11:23:27;;;;;;;3.40;1.20;;;18.50;1.00;;;;;;5052728;28;20181;-66
2021/05/23 11:26:15;;;;;;;2.43;2.03;;;18.30;1.00;;;;;;5052466;28;20459;-66
2021/05/23 11:28:46;;;;;;;1.97;1.10;;;18.20;1.00;;;;;;5035359;28;20423;-62
2021/05/23 11:31:11;;;;;;;5.27;2.30;;;18.70;1.00;;;;;;5052483;28;20412;-62
2021/05/23 11:33:37;;;;;;;2.30;1.37;;;19.50;1.00;;;;;;5034798;28;20423;-62
2021/05/23 11:36:03;;;;;;;2.73;0.93;;;19.30;1.00;;;;;;5052293;28;20362;-62
2021/05/23 11:38:37;;;;;;;2.03;1.03;;;18.40;1.00;;;;;;5052618;28;20188;-62
2021/05/23 11:41:04;;;;;;;3.50;1.03;;;17.90;1.00;;;;;;5052473;28;20616;-62
2021/05/23 11:43:30;;;;;;;2.40;1.80;;;18.00;1.00;;;;;;5034738;28;20427;-62
2021/05/23 11:45:59;;;;;;;3.73;1.40;;;17.80;1.00;;;;;;5051966;28;20459;-62
2021/05/23 11:48:42;;;;;;;2.67;1.50;;;17.40;1.00;;;;;;5052529;28;20908;-62
2021/05/23 11:51:12;;;;;;;4.00;1.80;;;17.40;1.00;;;;;;5052490;28;20911;-62
2021/05/23 11:53:46;;;;;;;3.30;1.80;;;17.50;1.00;;;;;;5052180;28;20491;-62
2021/05/23 11:56:17;;;;;;;1.40;1.27;;;17.80;1.00;;;;;;5034763;28;20427;-62
2021/05/23 11:58:54;;;;;;;3.07;2.77;;;18.00;1.00;;;;;;5052526;28;20455;-62
2021/05/23 12:01:26;;;;;;;2.27;1.57;;;18.50;1.00;;;;;;5052330;28;20427;-62
2021/05/23 12:04:12;;;;;;;4.80;2.93;;;18.40;1.00;;;;;;5034328;28;20920;-62
2021/05/23 12:06:42;;;;;;;2.50;1.80;;;18.10;1.00;;;;;;5052127;28;20832;-62
2021/05/23 12:09:18;;;;;;;4.30;2.07;;;17.80;1.00;;;;;;5036423;28;20419;-62
2021/05/23 12:11:51;;;;;;;4.17;1.73;;;17.70;1.00;;;;;;5055732;28;20476;-62
2021/05/23 12:14:31;;;;;;;6.00;2.40;;;17.60;1.00;;;;;;5055556;28;20424;-62
2021/05/23 12:17:13;;;;;;;4.00;2.70;;;17.20;1.00;;;;;;5055834;28;20481;-62
2021/05/23 12:20:09;;;;;;;2.10;1.40;;;17.60;1.00;;;;;;5056240;28;20483;-62
2021/05/23 12:22:38;;;;;;;2.30;1.57;;;18.00;1.00;;;;;;5035647;28;20844;-66
2021/05/23 12:25:04;;;;;;;2.93;2.00;;;18.20;1.00;;;;;;5055007;28;20829;-66
2021/05/23 12:27:32;;;;;;;4.10;2.17;;;18.00;1.00;;;;;;5055699;28;20502;-66
2021/05/23 12:30:18;;;;;;;1.80;1.70;;;17.90;1.00;;;;;;5055380;28;20251;-66
2021/05/23 12:33:01;;;;;;;3.27;1.67;;;17.50;1.00;;;;;;5055401;28;20493;-66
2021/05/23 12:35:28;;;;;;;2.80;2.60;;;17.40;1.00;;;;;;5037452;28;20439;-66
2021/05/23 12:38:05;;;;;;;4.10;1.80;;;17.70;1.00;;;;;;5055558;28;20423;-65
2021/05/23 12:40:43;;;;;;;3.63;2.60;;;17.30;1.00;;;;;;5055340;28;20720;-65
2021/05/23 12:43:13;;;;;;;4.60;1.73;;;16.90;1.00;;;;;;5054877;28;20430;-65
2021/05/23 12:45:41;;;;;;;4.20;1.80;;;17.40;1.00;;;;;;5037326;28;20463;-65
2021/05/23 12:48:09;;;;;;;1.87;1.67;;;18.40;1.00;;;;;;5055184;28;20895;-65
2021/05/23 12:51:07;;;;;;;4.13;1.50;;;19.00;1.00;;;;;;5056317;28;20415;-70
2021/05/23 12:53:36;;;;;;;2.77;1.70;;;18.70;1.00;;;;;;5055207;28;20427;-66
2021/05/23 12:56:18;;;;;;;3.53;1.70;;;18.60;1.00;;;;;;5054577;28;20423;-61
2021/05/23 12:59:34;;;;;;;1.87;1.30;;;18.60;1.00;;;;;;5057608;28;20997;-64
2021/05/23 13:01:52;;;;;;;4.77;2.83;;;18.90;1.00;;;;;;5052544;28;20438;-62